CPX206 Details

Departure: Sacramento International Airport (KSMF)
Arrival: Seattle-Tacoma International Airport (KSEA)
Route: RBL J126 OED J1 SEA


Current Weather Information
KSMF 251118Z 18016G20KT 10SM BKN008 12/11 A2977 RMK AO2 T01220106
KSEA 251053Z 20007KT 10SM FEW016 OVC036 12/07 A2998 RMK AO2 SLP159 T01170072